Time;durP1;ratioP1;P1;durP2;ratioP2;P2;SDS_P1;SDS_P2;PMS_P1;PMS_P2;Temp;Humidity;BMP_temperature;BMP_pressure;BME280_temperature;BME280_humidity;BME280_pressure;Samples;Min_cycle;Max_cycle;Signal;HPM_P1;HPM_P2
2023/10/21 00:00:22;;;;;;;17.73;9.35;;;15.50;99.90;;;;;;5078819;28;20032;-80
2023/10/21 00:02:50;;;;;;;16.13;9.75;;;15.50;99.90;;;;;;5075516;28;20045;-79
2023/10/21 00:05:18;;;;;;;14.45;9.60;;;15.40;99.90;;;;;;5075842;28;20044;-78
2023/10/21 00:07:45;;;;;;;20.27;9.38;;;15.10;99.90;;;;;;5075670;28;20040;-78
2023/10/21 00:10:12;;;;;;;18.45;9.20;;;15.10;99.90;;;;;;5076371;28;20082;-76
2023/10/21 00:12:57;;;;;;;18.83;9.73;;;15.30;99.90;;;;;;5075871;28;20680;-76
2023/10/21 00:15:24;;;;;;;17.38;9.95;;;15.40;99.90;;;;;;5072878;28;20121;-76
2023/10/21 00:17:51;;;;;;;14.13;8.95;;;15.60;99.90;;;;;;5060510;28;20481;-76
2023/10/21 00:20:19;;;;;;;16.58;8.82;;;15.20;99.90;;;;;;5049824;28;20395;-76
2023/10/21 00:22:46;;;;;;;16.85;9.18;;;15.00;99.90;;;;;;5066330;28;20504;-78
2023/10/21 00:25:13;;;;;;;16.08;9.07;;;15.00;99.90;;;;;;5055448;28;20492;-77
2023/10/21 00:27:43;;;;;;;18.52;9.55;;;15.30;99.90;;;;;;5066771;28;20047;-76
2023/10/21 00:30:11;;;;;;;17.20;9.82;;;15.50;99.90;;;;;;5072073;28;20044;-76
2023/10/21 00:32:41;;;;;;;14.50;10.05;;;15.20;99.90;;;;;;5061861;28;20039;-77
2023/10/21 00:35:08;;;;;;;17.58;10.40;;;15.50;99.90;;;;;;5068802;28;20387;-80
2023/10/21 00:37:35;;;;;;;16.83;9.40;;;15.60;99.90;;;;;;5056184;28;20040;-80
2023/10/21 00:40:03;;;;;;;16.00;10.27;;;15.10;99.90;;;;;;5066609;28;20032;-77
2023/10/21 00:42:30;;;;;;;14.70;9.70;;;14.90;99.90;;;;;;5077171;28;20036;-77
2023/10/21 00:44:59;;;;;;;18.55;9.02;;;15.20;99.90;;;;;;5080014;28;20053;-77
2023/10/21 00:47:27;;;;;;;11.48;8.85;;;14.90;99.90;;;;;;5074372;28;20037;-81
2023/10/21 00:49:56;;;;;;;15.65;9.13;;;15.20;99.90;;;;;;5074148;28;20028;-79
2023/10/21 00:52:24;;;;;;;15.45;9.30;;;15.10;99.90;;;;;;5076275;28;20044;-78
2023/10/21 00:54:52;;;;;;;16.98;8.73;;;14.90;99.90;;;;;;5072850;28;20044;-79
2023/10/21 00:57:20;;;;;;;14.13;8.77;;;15.00;99.90;;;;;;5070340;28;20366;-77
2023/10/21 00:59:47;;;;;;;13.32;8.60;;;15.00;99.90;;;;;;5066407;28;20037;-77
2023/10/21 01:02:16;;;;;;;15.65;8.57;;;14.70;99.90;;;;;;5078572;28;20422;-78
2023/10/21 01:04:43;;;;;;;17.42;9.15;;;14.80;99.90;;;;;;5073411;28;20037;-78
2023/10/21 01:07:16;;;;;;;14.85;8.55;;;14.90;99.90;;;;;;5070245;28;20045;-78
2023/10/21 01:09:44;;;;;;;16.90;8.77;;;15.00;99.90;;;;;;5074721;28;20387;-78
2023/10/21 01:12:11;;;;;;;12.43;7.90;;;14.80;99.90;;;;;;5058811;28;20063;-78
2023/10/21 01:14:38;;;;;;;15.57;8.60;;;15.10;99.90;;;;;;5058534;28;20438;-76
2023/10/21 01:17:08;;;;;;;14.13;8.90;;;14.90;99.90;;;;;;5062493;28;20173;-77
2023/10/21 01:19:35;;;;;;;13.75;8.25;;;14.70;99.90;;;;;;5061173;28;20043;-79
2023/10/21 01:22:03;;;;;;;18.25;8.52;;;15.00;99.90;;;;;;5080184;28;20102;-77
2023/10/21 01:24:30;;;;;;;14.18;8.50;;;15.40;99.90;;;;;;5083081;28;20123;-79
2023/10/21 01:26:57;;;;;;;12.35;8.25;;;14.80;99.90;;;;;;5076954;28;20055;-77
2023/10/21 01:29:24;;;;;;;13.00;8.07;;;14.70;99.90;;;;;;5080824;28;20559;-79
2023/10/21 01:31:52;;;;;;;13.30;8.57;;;14.80;99.90;;;;;;5080247;28;20124;-77
2023/10/21 01:34:19;;;;;;;10.88;8.25;;;15.00;99.90;;;;;;5060416;28;20048;-79
2023/10/21 01:36:47;;;;;;;14.63;8.23;;;14.70;99.90;;;;;;5065716;28;20072;-76
2023/10/21 01:39:14;;;;;;;13.93;8.52;;;14.90;99.90;;;;;;5079994;28;20050;-79
2023/10/21 01:41:41;;;;;;;13.93;7.80;;;15.10;99.90;;;;;;5078191;28;20400;-80
2023/10/21 01:44:09;;;;;;;14.25;8.00;;;14.90;99.90;;;;;;5090687;28;20051;-79
2023/10/21 01:46:55;;;;;;;13.18;8.00;;;15.00;99.90;;;;;;5096030;28;20055;-77
2023/10/21 01:49:22;;;;;;;12.35;8.00;;;15.00;99.90;;;;;;5095423;28;20064;-78
2023/10/21 01:51:49;;;;;;;14.88;8.38;;;15.00;99.90;;;;;;5095742;28;20044;-77
2023/10/21 01:54:16;;;;;;;11.05;7.90;;;15.00;99.90;;;;;;5092895;28;20040;-77
2023/10/21 01:56:45;;;;;;;10.35;7.45;;;14.80;99.90;;;;;;5074669;28;20071;-78
2023/10/21 01:59:13;;;;;;;12.07;7.60;;;14.80;99.90;;;;;;5050456;28;20044;-78
2023/10/21 02:01:41;;;;;;;12.05;7.60;;;14.60;99.90;;;;;;5086658;28;20040;-79
2023/10/21 02:04:08;;;;;;;12.30;7.50;;;14.70;99.90;;;;;;5091495;28;20412;-79
2023/10/21 02:06:36;;;;;;;11.90;7.57;;;15.10;99.90;;;;;;5089185;28;20043;-80
2023/10/21 02:09:03;;;;;;;16.58;7.93;;;15.20;99.90;;;;;;5091645;28;20046;-79
2023/10/21 02:11:31;;;;;;;14.90;8.10;;;15.20;99.90;;;;;;5092390;28;20051;-79
2023/10/21 02:13:58;;;;;;;11.63;7.38;;;15.10;99.90;;;;;;5089464;28;20549;-81
2023/10/21 02:16:25;;;;;;;15.35;7.93;;;14.90;99.90;;;;;;5067178;28;20065;-81
2023/10/21 02:18:54;;;;;;;14.63;8.00;;;14.60;99.90;;;;;;5090197;28;20044;-80
2023/10/21 02:21:21;;;;;;;15.10;8.45;;;14.50;99.90;;;;;;5092205;28;20384;-80
2023/10/21 02:23:48;;;;;;;14.70;8.32;;;14.40;99.90;;;;;;5091812;28;20479;-82
2023/10/21 02:26:16;;;;;;;13.85;8.60;;;14.40;99.90;;;;;;5073971;28;20128;-80
2023/10/21 02:28:43;;;;;;;14.48;7.50;;;14.50;99.90;;;;;;5091807;28;20119;-80
2023/10/21 02:31:10;;;;;;;12.80;8.85;;;14.60;99.90;;;;;;5085093;28;20040;-80
2023/10/21 02:33:38;;;;;;;20.23;8.25;;;14.70;99.90;;;;;;5088337;28;20032;-78
2023/10/21 02:36:05;;;;;;;12.45;8.02;;;14.80;99.90;;;;;;5090912;28;20052;-80
2023/10/21 02:38:33;;;;;;;11.80;7.43;;;14.70;99.90;;;;;;5073895;28;20040;-79
2023/10/21 02:41:17;;;;;;;14.18;8.10;;;14.80;99.90;;;;;;5089373;28;20050;-78
2023/10/21 02:43:44;;;;;;;14.55;8.43;;;14.40;99.90;;;;;;5073651;28;20565;-79
2023/10/21 02:46:13;;;;;;;12.43;8.45;;;14.70;99.90;;;;;;5088070;28;20047;-78
2023/10/21 02:48:42;;;;;;;12.90;8.10;;;14.80;99.90;;;;;;5073516;28;20048;-76
2023/10/21 02:51:20;;;;;;;14.40;7.93;;;14.90;99.90;;;;;;5091157;28;20043;-77
2023/10/21 02:53:47;;;;;;;12.15;8.00;;;14.70;99.90;;;;;;5088855;28;20118;-76
2023/10/21 02:56:14;;;;;;;13.30;8.93;;;14.50;99.90;;;;;;5088052;28;20430;-78
2023/10/21 02:58:41;;;;;;;15.15;7.80;;;14.60;99.90;;;;;;5091213;28;20040;-78
2023/10/21 03:01:17;;;;;;;14.40;9.45;;;14.40;99.90;;;;;;5072357;28;20846;-79
2023/10/21 03:03:47;;;;;;;16.17;9.30;;;14.60;99.90;;;;;;5087960;28;20040;-78
2023/10/21 03:06:16;;;;;;;19.17;10.38;;;14.20;99.90;;;;;;5091475;28;20059;-79
2023/10/21 03:08:44;;;;;;;16.92;9.43;;;14.20;99.90;;;;;;5089215;28;20039;-81
2023/10/21 03:11:11;;;;;;;15.82;10.20;;;14.50;99.90;;;;;;5091117;28;20395;-80
2023/10/21 03:13:39;;;;;;;15.05;9.38;;;14.50;99.90;;;;;;5087352;28;20444;-76
2023/10/21 03:16:06;;;;;;;16.05;9.43;;;14.40;99.90;;;;;;5090976;28;20036;-78
2023/10/21 03:18:51;;;;;;;18.13;10.35;;;14.30;99.90;;;;;;5089224;28;20017;-80
2023/10/21 03:21:18;;;;;;;15.98;9.93;;;14.50;99.90;;;;;;5089082;28;20046;-79
2023/10/21 03:23:46;;;;;;;14.30;9.07;;;14.50;99.90;;;;;;5073028;28;20059;-79
2023/10/21 03:26:13;;;;;;;15.45;9.35;;;14.00;99.90;;;;;;5090434;28;20109;-80
2023/10/21 03:28:57;;;;;;;14.90;9.50;;;13.90;99.90;;;;;;5089260;28;20051;-79
2023/10/21 03:31:25;;;;;;;11.45;8.18;;;14.20;99.90;;;;;;5090634;28;20119;-79
2023/10/21 03:33:52;;;;;;;14.18;8.98;;;13.90;99.90;;;;;;5090324;28;20032;-79
2023/10/21 03:36:19;;;;;;;18.13;9.73;;;14.10;99.90;;;;;;5072639;28;20044;-82
2023/10/21 03:38:46;;;;;;;17.33;9.13;;;14.00;99.90;;;;;;5091193;28;20430;-79
2023/10/21 03:41:15;;;;;;;13.18;8.55;;;13.90;99.90;;;;;;5088042;28;20037;-77
2023/10/21 03:43:42;;;;;;;16.35;8.75;;;13.80;99.90;;;;;;5090633;28;20140;-77
2023/10/21 03:46:14;;;;;;;12.55;8.10;;;13.90;99.90;;;;;;5089965;28;20039;-77
2023/10/21 03:48:42;;;;;;;19.15;8.68;;;14.00;99.90;;;;;;5072926;28;20047;-76
2023/10/21 03:51:11;;;;;;;15.75;8.45;;;14.10;99.90;;;;;;5087198;28;20832;-79
2023/10/21 03:53:41;;;;;;;13.82;8.40;;;13.80;99.90;;;;;;5090438;28;20483;-78
2023/10/21 03:56:09;;;;;;;16.92;9.15;;;14.00;99.90;;;;;;5089805;28;20521;-78
2023/10/21 03:58:54;;;;;;;13.23;8.43;;;13.90;99.90;;;;;;5087834;28;20383;-77
2023/10/21 04:01:21;;;;;;;13.15;8.05;;;14.10;99.90;;;;;;5090720;28;20032;-75
2023/10/21 04:03:48;;;;;;;13.75;8.25;;;14.30;99.90;;;;;;5090035;28;20101;-77
2023/10/21 04:06:16;;;;;;;13.10;8.50;;;14.10;99.90;;;;;;5090374;28;20036;-77
2023/10/21 04:08:43;;;;;;;14.05;7.97;;;14.10;99.90;;;;;;5071759;28;20043;-76
2023/10/21 04:11:10;;;;;;;14.23;7.93;;;14.10;99.90;;;;;;5089863;28;20122;-77
2023/10/21 04:13:37;;;;;;;17.02;8.63;;;14.20;99.90;;;;;;5089963;28;20036;-79
2023/10/21 04:16:05;;;;;;;11.95;8.25;;;14.30;99.90;;;;;;5089920;28;20119;-79
2023/10/21 04:18:32;;;;;;;12.75;7.82;;;14.30;99.90;;;;;;5089171;28;20047;-77
2023/10/21 04:21:00;;;;;;;12.98;7.78;;;14.40;99.90;;;;;;5089207;28;20052;-78
2023/10/21 04:23:27;;;;;;;9.93;7.40;;;14.40;99.90;;;;;;5090137;28;20479;-76
2023/10/21 04:25:54;;;;;;;14.00;7.88;;;14.10;99.90;;;;;;5089459;28;20047;-76
2023/10/21 04:28:23;;;;;;;15.25;8.85;;;14.20;99.90;;;;;;5089646;28;20029;-76
2023/10/21 04:31:07;;;;;;;15.05;7.82;;;14.20;99.90;;;;;;5066015;28;20090;-79
2023/10/21 04:33:34;;;;;;;13.07;7.35;;;14.40;99.90;;;;;;5063641;28;20498;-77
2023/10/21 04:36:20;;;;;;;13.45;8.32;;;14.40;99.90;;;;;;5087273;28;20051;-78
2023/10/21 04:38:47;;;;;;;13.25;7.35;;;14.40;99.90;;;;;;5089881;28;20040;-79
2023/10/21 04:41:15;;;;;;;11.95;7.32;;;14.40;99.90;;;;;;5089662;28;20101;-77
2023/10/21 04:43:42;;;;;;;12.95;7.55;;;14.20;99.90;;;;;;5089661;28;20131;-80
2023/10/21 04:46:09;;;;;;;12.00;7.13;;;14.40;99.90;;;;;;5086346;28;20738;-78
2023/10/21 04:48:37;;;;;;;12.30;7.47;;;14.50;99.90;;;;;;5071132;28;20047;-79
2023/10/21 04:51:04;;;;;;;13.13;8.13;;;14.60;99.90;;;;;;5071286;28;20048;-79
2023/10/21 04:53:31;;;;;;;15.48;8.13;;;14.00;99.90;;;;;;5090104;28;20058;-77
2023/10/21 04:55:59;;;;;;;12.75;8.02;;;14.00;99.90;;;;;;5071426;28;20050;-77
2023/10/21 04:58:26;;;;;;;18.67;8.20;;;14.00;99.90;;;;;;5089357;28;20035;-77
2023/10/21 05:00:53;;;;;;;15.55;8.93;;;13.60;99.90;;;;;;5089367;28;20119;-79
2023/10/21 05:03:20;;;;;;;15.45;8.13;;;13.60;99.90;;;;;;5089947;28;20595;-78
2023/10/21 05:05:48;;;;;;;15.93;8.13;;;13.50;99.90;;;;;;5089850;28;20039;-77
2023/10/21 05:08:15;;;;;;;14.48;8.23;;;13.50;99.90;;;;;;5089389;28;20044;-77
2023/10/21 05:10:42;;;;;;;15.38;7.85;;;13.70;99.90;;;;;;5089467;28;20052;-78
2023/10/21 05:13:09;;;;;;;11.48;8.05;;;13.80;99.90;;;;;;5067475;28;20028;-79
2023/10/21 05:15:38;;;;;;;12.55;8.18;;;14.10;99.90;;;;;;5089132;28;20044;-77
2023/10/21 05:18:05;;;;;;;13.18;8.13;;;14.30;99.90;;;;;;5089292;28;20044;-79
2023/10/21 05:20:32;;;;;;;10.88;8.00;;;14.40;99.90;;;;;;5089248;28;20044;-79
2023/10/21 05:23:17;;;;;;;12.65;7.88;;;14.50;99.90;;;;;;5086465;28;20077;-78
2023/10/21 05:25:44;;;;;;;12.55;7.82;;;14.60;99.90;;;;;;5089434;28;20111;-78
2023/10/21 05:28:12;;;;;;;12.95;8.70;;;14.70;99.90;;;;;;5089227;28;20032;-77
2023/10/21 05:30:40;;;;;;;13.00;7.75;;;14.80;99.90;;;;;;5093374;28;20044;-80
2023/10/21 05:33:08;;;;;;;14.77;8.40;;;14.80;99.90;;;;;;5092809;28;20032;-79
2023/10/21 05:35:36;;;;;;;13.48;8.13;;;14.50;99.90;;;;;;5093073;28;20484;-79
2023/10/21 05:38:04;;;;;;;13.20;8.63;;;14.20;99.90;;;;;;5075010;28;20032;-80
2023/10/21 05:40:31;;;;;;;13.85;7.97;;;13.90;99.90;;;;;;5093221;28;20097;-79
2023/10/21 05:42:59;;;;;;;18.90;8.75;;;13.80;99.90;;;;;;5074700;28;20794;-79
2023/10/21 05:45:26;;;;;;;12.93;8.18;;;13.70;99.90;;;;;;5093063;28;20040;-80
2023/10/21 05:47:53;;;;;;;16.92;8.93;;;13.70;99.90;;;;;;5074670;28;20040;-80
2023/10/21 05:50:21;;;;;;;12.85;8.35;;;13.90;99.90;;;;;;5092982;28;20479;-79
2023/10/21 05:52:48;;;;;;;15.13;8.32;;;13.80;99.90;;;;;;5093017;28;20397;-79
2023/10/21 05:55:15;;;;;;;14.68;8.35;;;13.80;99.90;;;;;;5092305;28;20035;-79
2023/10/21 05:57:43;;;;;;;13.93;8.65;;;14.00;99.90;;;;;;5093093;28;20047;-79
2023/10/21 06:00:12;;;;;;;13.80;8.13;;;14.30;99.90;;;;;;5083554;28;20040;-76
2023/10/21 06:02:40;;;;;;;12.75;8.68;;;14.40;99.90;;;;;;5092555;28;20119;-80
2023/10/21 06:05:08;;;;;;;16.80;8.90;;;14.30;99.90;;;;;;5091007;28;20044;-79
2023/10/21 06:07:35;;;;;;;10.32;7.50;;;14.60;99.90;;;;;;5074213;28;20048;-78
2023/10/21 06:10:04;;;;;;;15.80;8.00;;;14.20;99.90;;;;;;5073948;28;20111;-79
2023/10/21 06:12:32;;;;;;;17.98;8.40;;;14.40;99.90;;;;;;5088595;28;20130;-79
2023/10/21 06:15:00;;;;;;;12.55;8.60;;;14.50;99.90;;;;;;5074306;28;20085;-77
2023/10/21 06:17:28;;;;;;;13.55;8.73;;;14.70;99.90;;;;;;5091603;28;20034;-80
2023/10/21 06:19:56;;;;;;;24.23;13.95;;;14.60;99.90;;;;;;5092451;28;20039;-79
2023/10/21 06:22:23;;;;;;;36.40;22.55;;;14.60;99.90;;;;;;5092289;28;20044;-77
2023/10/21 06:24:50;;;;;;;20.77;10.95;;;15.10;99.90;;;;;;5085910;28;20494;-77
2023/10/21 06:27:18;;;;;;;20.20;13.35;;;14.70;99.90;;;;;;5073192;28;20077;-75
2023/10/21 06:29:45;;;;;;;56.50;34.60;;;14.80;99.90;;;;;;5073670;28;20125;-76
2023/10/21 06:32:13;;;;;;;15.05;10.38;;;15.30;99.90;;;;;;5085842;28;20388;-76
2023/10/21 06:34:40;;;;;;;33.63;22.75;;;15.20;99.90;;;;;;5090445;28;20476;-79
2023/10/21 06:37:08;;;;;;;83.95;48.00;;;15.40;99.90;;;;;;5090678;28;20448;-77
2023/10/21 06:39:36;;;;;;;55.13;32.58;;;15.70;99.90;;;;;;5090138;28;20500;-78
2023/10/21 06:42:04;;;;;;;18.50;12.23;;;15.90;99.90;;;;;;5090551;28;20036;-79
2023/10/21 06:44:31;;;;;;;11.20;8.98;;;15.80;99.90;;;;;;5087033;28;20067;-76
2023/10/21 06:46:59;;;;;;;21.55;11.32;;;15.90;99.90;;;;;;5089942;28;20040;-77
2023/10/21 06:49:26;;;;;;;19.95;10.38;;;16.00;99.90;;;;;;5068875;28;20787;-73
2023/10/21 06:51:55;;;;;;;14.38;10.25;;;16.10;99.90;;;;;;5091785;28;20036;-76
2023/10/21 06:54:22;;;;;;;16.00;9.50;;;16.10;99.90;;;;;;5073609;28;20032;-81
2023/10/21 06:56:49;;;;;;;15.23;8.88;;;16.30;99.90;;;;;;5087032;28;20512;-78
2023/10/21 06:59:17;;;;;;;15.52;8.88;;;16.40;99.90;;;;;;5083882;28;20044;-81
2023/10/21 07:01:46;;;;;;;15.48;9.43;;;16.40;99.90;;;;;;5079983;28;20409;-79
2023/10/21 07:04:14;;;;;;;15.43;10.50;;;16.50;99.90;;;;;;5076995;28;20127;-80
2023/10/21 07:06:41;;;;;;;25.33;16.15;;;16.60;99.90;;;;;;5074779;28;20039;-85
2023/10/21 07:09:08;;;;;;;157.15;94.82;;;16.70;99.90;;;;;;5087826;28;20384;-84
2023/10/21 07:11:35;;;;;;;43.13;28.58;;;16.80;99.90;;;;;;5090890;28;20060;-82
2023/10/21 07:14:04;;;;;;;19.40;11.82;;;16.90;99.90;;;;;;5089409;28;20107;-76
2023/10/21 07:16:31;;;;;;;20.80;10.27;;;17.00;99.90;;;;;;5072455;28;20044;-81
2023/10/21 07:18:59;;;;;;;18.65;9.32;;;17.10;99.90;;;;;;5093084;28;20042;-88
2023/10/21 07:21:27;;;;;;;20.85;9.20;;;17.00;99.90;;;;;;5094049;28;20044;-84
2023/10/21 07:23:54;;;;;;;16.23;9.43;;;17.10;99.90;;;;;;5086277;28;20032;-81
2023/10/21 07:26:23;;;;;;;15.32;9.15;;;17.10;99.90;;;;;;5076597;28;20048;-84
2023/10/21 07:28:50;;;;;;;25.52;12.57;;;17.20;99.90;;;;;;5095479;28;20028;-86
2023/10/21 07:31:18;;;;;;;24.55;12.45;;;17.40;99.90;;;;;;5092992;28;20435;-84
2023/10/21 07:33:45;;;;;;;79.50;46.80;;;17.50;99.90;;;;;;5055265;28;20054;-84
2023/10/21 07:36:12;;;;;;;68.40;42.80;;;17.70;99.90;;;;;;5090400;28;20044;-90
2023/10/21 07:38:39;;;;;;;46.38;21.50;;;17.80;99.90;;;;;;5091961;28;20063;-84
2023/10/21 07:41:14;;;;;;;25.63;15.23;;;18.10;99.90;;;;;;5074085;28;20067;-81
2023/10/21 07:43:41;;;;;;;36.50;14.77;;;18.20;99.90;;;;;;5091684;28;20123;-83
2023/10/21 07:46:08;;;;;;;34.28;17.10;;;18.10;99.90;;;;;;5072582;28;20044;-84
2023/10/21 07:48:35;;;;;;;29.98;16.60;;;18.50;99.90;;;;;;5070584;28;20264;-83
2023/10/21 07:51:03;;;;;;;28.73;14.18;;;18.70;99.90;;;;;;5087761;28;20401;-84
2023/10/21 07:53:30;;;;;;;35.92;16.48;;;18.80;99.90;;;;;;5087601;28;20123;-82
2023/10/21 07:55:58;;;;;;;30.17;15.13;;;19.10;99.90;;;;;;5089105;28;20127;-84
2023/10/21 07:58:26;;;;;;;23.58;14.25;;;19.30;99.90;;;;;;5089656;28;20032;-84
2023/10/21 08:00:58;;;;;;;27.38;14.63;;;19.30;99.90;;;;;;5090103;28;20118;-83
2023/10/21 08:03:27;;;;;;;21.70;13.52;;;19.50;99.90;;;;;;5073269;28;20036;-86
2023/10/21 08:05:55;;;;;;;21.90;11.30;;;19.40;99.90;;;;;;5090598;28;20136;-84
2023/10/21 08:08:25;;;;;;;18.63;10.05;;;19.50;99.90;;;;;;5092015;28;20032;-84
2023/10/21 08:10:59;;;;;;;19.65;10.55;;;19.70;99.90;;;;;;5088507;28;20046;-84
2023/10/21 08:13:27;;;;;;;21.02;11.07;;;19.80;99.90;;;;;;5086201;28;20051;-80
2023/10/21 08:15:54;;;;;;;17.20;10.18;;;20.10;99.90;;;;;;5088777;28;20047;-84
2023/10/21 08:18:22;;;;;;;16.92;9.68;;;20.20;99.90;;;;;;5088531;28;20036;-86
2023/10/21 08:20:49;;;;;;;17.85;8.32;;;20.40;99.90;;;;;;5088756;28;20097;-84
2023/10/21 08:23:17;;;;;;;13.00;8.70;;;20.30;99.90;;;;;;5091907;28;20043;-85
2023/10/21 08:25:45;;;;;;;19.80;8.52;;;20.40;99.90;;;;;;5071694;28;20036;-83
2023/10/21 08:28:12;;;;;;;16.77;8.85;;;20.60;99.90;;;;;;5072956;28;20935;-84
2023/10/21 08:30:40;;;;;;;14.90;7.68;;;20.60;99.90;;;;;;5090498;28;20036;-83
2023/10/21 08:33:07;;;;;;;10.50;6.93;;;20.60;99.90;;;;;;5071762;28;20044;-83
2023/10/21 08:35:35;;;;;;;14.77;7.30;;;20.80;99.90;;;;;;5071458;28;20411;-84
2023/10/21 08:38:02;;;;;;;14.23;7.75;;;21.30;99.90;;;;;;5086639;28;20065;-82
2023/10/21 08:40:29;;;;;;;12.90;7.10;;;21.20;99.90;;;;;;5085358;28;20116;-82
2023/10/21 08:43:01;;;;;;;11.68;7.00;;;21.20;99.90;;;;;;5084691;28;20128;-84
2023/10/21 08:45:34;;;;;;;14.02;6.97;;;21.30;99.90;;;;;;5068379;28;20037;-84
2023/10/21 08:48:19;;;;;;;14.80;6.93;;;21.40;99.90;;;;;;5066441;28;21596;-84
2023/10/21 08:50:49;;;;;;;14.25;7.20;;;21.70;99.90;;;;;;5052212;28;20033;-84
2023/10/21 08:53:17;;;;;;;11.68;7.22;;;21.60;99.90;;;;;;5067036;28;20098;-82
2023/10/21 08:55:46;;;;;;;16.85;7.30;;;21.80;99.90;;;;;;5069732;28;20036;-83
2023/10/21 08:58:13;;;;;;;14.35;7.28;;;22.10;99.90;;;;;;5044087;28;20075;-82
2023/10/21 09:00:41;;;;;;;14.30;7.07;;;21.90;99.90;;;;;;5066207;28;20099;-85
2023/10/21 09:03:09;;;;;;;10.30;6.35;;;21.90;99.90;;;;;;5066476;28;20045;-84
2023/10/21 09:06:11;;;;;;;13.68;6.78;;;22.40;99.90;;;;;;5073769;28;20418;-84
2023/10/21 09:08:41;;;;;;;12.65;6.47;;;22.70;99.90;;;;;;5073233;28;20612;-84
2023/10/21 09:11:13;;;;;;;13.80;6.45;;;22.80;99.90;;;;;;5073354;28;20047;-83
2023/10/21 09:13:41;;;;;;;10.82;6.40;;;21.90;99.90;;;;;;5048826;28;20040;-84
2023/10/21 09:16:29;;;;;;;11.18;6.80;;;21.90;99.90;;;;;;5073250;28;20033;-84
2023/10/21 09:19:07;;;;;;;10.25;6.22;;;22.60;99.90;;;;;;5072924;28;20036;-83
2023/10/21 09:21:41;;;;;;;12.32;6.28;;;23.00;99.90;;;;;;5075322;28;20594;-84
2023/10/21 09:24:19;;;;;;;9.55;6.07;;;23.30;99.90;;;;;;5072688;28;20044;-83
2023/10/21 09:26:47;;;;;;;9.15;5.63;;;23.30;99.90;;;;;;5071314;28;21404;-83
2023/10/21 09:29:24;;;;;;;12.27;6.55;;;23.50;99.90;;;;;;5061136;28;20114;-82
2023/10/21 09:31:54;;;;;;;15.95;9.07;;;23.60;99.90;;;;;;5068546;28;20033;-83
2023/10/21 09:34:25;;;;;;;22.87;11.33;;;23.70;99.90;;;;;;5061730;28;20040;-83
2023/10/21 09:37:13;;;;;;;14.30;7.43;;;23.90;99.90;;;;;;5062291;28;20503;-82
2023/10/21 09:39:43;;;;;;;10.20;5.47;;;24.10;99.90;;;;;;5062805;28;20114;-82
2023/10/21 09:42:10;;;;;;;11.45;6.32;;;24.00;99.90;;;;;;5063416;28;20491;-84
2023/10/21 09:44:39;;;;;;;11.55;6.28;;;24.10;99.90;;;;;;5060440;28;20044;-83
2023/10/21 09:47:08;;;;;;;11.40;5.68;;;24.30;99.90;;;;;;5084749;28;20131;-83
2023/10/21 09:49:38;;;;;;;16.23;6.32;;;24.00;99.90;;;;;;5084141;28;20543;-83
2023/10/21 09:52:07;;;;;;;;;;;23.80;99.90;;;;;;5087391;28;20119;-82
2023/10/21 09:54:48;;;;;;;14.30;5.85;;;23.80;99.90;;;;;;5086404;28;19924;-83
2023/10/21 09:57:16;;;;;;;10.30;6.38;;;24.20;99.90;;;;;;5065773;28;20051;-81
2023/10/21 09:59:46;;;;;;;11.07;5.50;;;23.90;99.90;;;;;;5087175;28;20484;-83
2023/10/21 10:02:14;;;;;;;;;;;23.00;99.90;;;;;;5087839;28;20083;-87
2023/10/21 10:04:42;;;;;;;10.55;5.75;;;23.50;99.90;;;;;;5070606;28;19977;-81
2023/10/21 10:07:12;;;;;;;13.20;5.72;;;23.30;99.90;;;;;;5089566;28;20047;-80
2023/10/21 10:10:01;;;;;;;9.90;6.15;;;23.40;99.90;;;;;;5072007;28;20079;-82
2023/10/21 10:12:37;;;;;;;17.23;5.85;;;23.80;99.90;;;;;;5088114;28;20452;-82
2023/10/21 10:15:35;;;;;;;12.32;5.65;;;24.10;99.90;;;;;;5089230;28;20040;-80
2023/10/21 10:18:21;;;;;;;12.95;5.93;;;24.20;99.90;;;;;;5072797;28;20024;-81
2023/10/21 10:20:51;;;;;;;10.40;5.25;;;24.30;99.90;;;;;;5067484;28;20455;-80
2023/10/21 10:23:20;;;;;;;10.43;5.72;;;23.80;99.90;;;;;;5084552;28;20427;-81
2023/10/21 10:25:49;;;;;;;12.15;5.50;;;23.80;99.90;;;;;;5088976;28;20036;-82
2023/10/21 10:28:23;;;;;;;11.95;6.38;;;24.10;99.90;;;;;;5087934;28;20044;-81
2023/10/21 10:30:51;;;;;;;15.10;6.57;;;23.40;99.90;;;;;;5092088;28;20035;-81
2023/10/21 10:33:22;;;;;;;12.20;6.15;;;23.10;99.90;;;;;;5091796;28;20044;-81
2023/10/21 10:35:54;;;;;;;14.85;6.15;;;23.10;99.90;;;;;;5088649;28;20032;-82
2023/10/21 10:38:31;;;;;;;14.73;6.65;;;22.90;99.90;;;;;;5087885;28;20399;-82
2023/10/21 10:41:06;;;;;;;11.30;5.78;;;22.50;99.90;;;;;;5089457;28;20036;-81
2023/10/21 10:43:37;;;;;;;11.88;6.03;;;22.50;99.90;;;;;;5088828;28;20474;-79
2023/10/21 10:46:06;;;;;;;10.20;6.45;;;22.50;99.90;;;;;;5086371;28;20039;-82
2023/10/21 10:48:34;;;;;;;11.57;6.70;;;22.40;99.90;;;;;;5070542;28;20044;-82
2023/10/21 10:51:18;;;;;;;12.57;6.53;;;22.50;99.90;;;;;;5089785;28;20040;-78
2023/10/21 10:53:48;;;;;;;14.35;6.65;;;22.30;99.90;;;;;;5086108;28;20036;-81
2023/10/21 10:56:21;;;;;;;15.98;9.02;;;22.10;99.90;;;;;;5091668;28;20040;-80
2023/10/21 10:58:49;;;;;;;10.23;6.43;;;22.10;99.90;;;;;;5084918;28;20040;-83
2023/10/21 11:01:27;;;;;;;11.80;6.15;;;22.30;99.90;;;;;;5053903;28;20050;-82
2023/10/21 11:04:02;;;;;;;11.18;7.25;;;22.20;99.90;;;;;;5088362;28;20082;-82
2023/10/21 11:06:35;;;;;;;15.50;7.65;;;21.90;99.90;;;;;;5091915;28;20040;-79
2023/10/21 11:09:04;;;;;;;15.57;8.25;;;22.00;99.90;;;;;;5066120;28;20480;-82
2023/10/21 11:11:48;;;;;;;17.65;9.02;;;22.00;99.90;;;;;;5070610;28;20117;-80
2023/10/21 11:14:35;;;;;;;17.45;9.07;;;21.70;99.90;;;;;;5085778;28;20032;-83
2023/10/21 11:17:04;;;;;;;16.90;8.93;;;21.70;99.90;;;;;;5090621;28;20067;-80
2023/10/21 11:19:32;;;;;;;16.48;9.18;;;21.80;99.90;;;;;;5065273;28;20055;-81
2023/10/21 11:22:00;;;;;;;15.43;9.10;;;21.50;99.90;;;;;;5079778;28;20064;-80
2023/10/21 11:24:30;;;;;;;16.77;9.82;;;21.50;99.90;;;;;;5087241;28;20063;-81
2023/10/21 11:26:59;;;;;;;18.65;9.77;;;21.50;99.90;;;;;;5091606;28;20464;-83
2023/10/21 11:29:26;;;;;;;14.82;9.05;;;21.50;99.90;;;;;;5065675;28;20447;-79
2023/10/21 11:31:57;;;;;;;16.25;9.80;;;21.60;99.90;;;;;;5063401;28;20474;-83
2023/10/21 11:34:29;;;;;;;19.23;11.20;;;21.70;99.90;;;;;;5089338;28;20140;-81
2023/10/21 11:36:57;;;;;;;16.75;9.60;;;21.70;99.90;;;;;;5087067;28;20040;-81
2023/10/21 11:39:26;;;;;;;16.17;9.35;;;22.00;99.90;;;;;;5090856;28;20487;-80
2023/10/21 11:41:53;;;;;;;16.10;9.40;;;22.30;99.90;;;;;;5090779;28;20036;-87
2023/10/21 11:44:29;;;;;;;15.43;9.15;;;22.10;99.90;;;;;;5085121;28;20445;-81
2023/10/21 11:47:06;;;;;;;18.10;9.88;;;22.00;99.90;;;;;;5087880;28;20063;-83
2023/10/21 11:49:39;;;;;;;21.65;9.20;;;22.20;99.90;;;;;;5084288;28;20040;-79
2023/10/21 11:52:09;;;;;;;16.75;9.95;;;22.80;99.90;;;;;;5087729;28;20036;-82
2023/10/21 11:54:46;;;;;;;19.17;9.70;;;23.00;99.90;;;;;;5090559;28;20158;-83
2023/10/21 12:36:36;;;;;;;15.18;8.73;;;22.50;99.90;;;;;;5063902;28;20120;-81
2023/10/21 12:41:45;;;;;;;16.63;10.15;;;22.30;99.90;;;;;;5083656;28;20044;-81
2023/10/21 12:44:19;;;;;;;15.07;9.43;;;22.40;99.90;;;;;;5071179;28;20060;-80
2023/10/21 12:47:05;;;;;;;15.77;9.82;;;22.40;99.90;;;;;;5063073;28;20031;-83
2023/10/21 12:49:43;;;;;;;20.05;10.13;;;22.30;99.90;;;;;;5081027;28;20120;-80
2023/10/21 12:52:12;;;;;;;18.58;9.82;;;22.30;99.90;;;;;;5057042;28;20043;-82
2023/10/21 12:54:40;;;;;;;17.33;10.32;;;22.20;99.90;;;;;;5079109;28;20372;-82
2023/10/21 12:57:16;;;;;;;17.55;10.02;;;22.40;99.90;;;;;;5077471;28;20415;-80
2023/10/21 12:59:44;;;;;;;19.30;10.18;;;22.40;99.90;;;;;;5080513;28;20488;-83
2023/10/21 13:02:14;;;;;;;15.63;9.30;;;22.30;99.90;;;;;;5085631;28;20139;-82
2023/10/21 13:04:45;;;;;;;14.90;9.38;;;22.40;99.90;;;;;;5056287;28;20039;-83
2023/10/21 13:07:36;;;;;;;18.02;9.15;;;22.40;99.90;;;;;;5075222;28;20160;-82
2023/10/21 13:10:05;;;;;;;18.25;10.45;;;22.40;99.90;;;;;;5083490;28;20032;-85
2023/10/21 13:12:32;;;;;;;19.70;10.00;;;22.40;99.90;;;;;;5087127;28;20051;-82
2023/10/21 13:15:02;;;;;;;15.38;9.00;;;22.30;99.90;;;;;;5082694;28;20029;-82
2023/10/21 13:17:48;;;;;;;14.40;9.13;;;22.10;99.90;;;;;;5085291;28;20345;-81
2023/10/21 13:20:18;;;;;;;20.02;10.43;;;22.20;99.90;;;;;;5062665;28;20036;-81
2023/10/21 13:22:51;;;;;;;14.35;9.20;;;22.20;99.90;;;;;;5062294;28;20048;-83
2023/10/21 13:25:19;;;;;;;15.60;9.35;;;22.20;99.90;;;;;;5081158;28;20497;-82
2023/10/21 13:27:54;;;;;;;19.48;10.48;;;22.20;99.90;;;;;;5079517;28;20990;-81
2023/10/21 13:30:22;;;;;;;18.73;8.75;;;22.20;99.90;;;;;;5078437;28;20032;-80